Wetterdaten: Woche 21.10.19 - 27.10.19 (KW43)
Datum Zeit Temp. Aussen Temp. o. S. Temp +5cm Feuchte Auss Luftdruck Regen Sonnenschein Regendauer Solar Windben Empfang
21.10.2019 00:00 11,3 C 10,6 C 10,3 C 100 % 1010,5 hPa 0,2 l/m 0,00 h 0,43 h 0 W/m 1,1 km/h (1 Bft) 96,39 %
21.10.2019 01:00 11,4 C 10,6 C 10,4 C 100 % 1010,3 hPa 0,0 l/m 0,00 h 0,00 h 0 W/m 1,3 km/h (1 Bft) 97,50 %
21.10.2019 02:00 11,5 C 10,6 C 10,6 C 100 % 1010,6 hPa 0,0 l/m 0,00 h 0,00 h 0 W/m 0,0 km/h (0 Bft) 96,53 %
21.10.2019 03:00 11,6 C 10,8 C 10,6 C 100 % 1011,1 hPa 0,0 l/m 0,00 h 0,00 h 0 W/m 0,0 km/h (0 Bft) 97,72 %
21.10.2019 04:00 11,7 C 11,1 C 10,6 C 100 % 1011,6 hPa 0,0 l/m 0,00 h 0,00 h 0 W/m 0,0 km/h (0 Bft) 99,15 %
21.10.2019 05:00 11,8 C 11,1 C 10,6 C 100 % 1011,9 hPa 0,0 l/m 0,00 h 0,00 h 0 W/m 0,2 km/h (0 Bft) 95,94 %
21.10.2019 06:00 12,0 C 11,2 C 10,8 C 100 % 1012,2 hPa 0,0 l/m 0,00 h 0,00 h 0 W/m 2,8 km/h (1 Bft) 98,23 %
21.10.2019 07:00 12,2 C 11,7 C 11,1 C 100 % 1012,4 hPa 0,0 l/m 0,00 h 0,00 h 0 W/m 0,7 km/h (0 Bft) 96,63 %
21.10.2019 08:00 12,6 C 11,9 C 11,4 C 100 % 1013,2 hPa 0,0 l/m 0,00 h 0,00 h 9 W/m 12,1 km/h (2 Bft) 96,74 %
21.10.2019 09:00 13,1 C 12,8 C 12,1 C 100 % 1014,3 hPa 0,0 l/m 0,07 h 0,00 h 41 W/m 6,0 km/h (2 Bft) 97,50 %
21.10.2019 10:00 14,5 C 16,8 C 13,7 C 100 % 1015,0 hPa 0,0 l/m 0,90 h 0,03 h 285 W/m 10,3 km/h (2 Bft) 96,77 %
21.10.2019 11:00 15,3 C 17,9 C 14,2 C 100 % 1015,9 hPa 0,0 l/m 0,47 h 0,00 h 227 W/m 16,2 km/h (3 Bft) 97,89 %
21.10.2019 12:00 16,6 C 19,4 C 15,4 C 84 % 1016,7 hPa 0,0 l/m 0,83 h 0,00 h 410 W/m 26,3 km/h (4 Bft) 98,09 %
21.10.2019 13:00 16,3 C 18,3 C 15,5 C 80 % 1017,5 hPa 0,0 l/m 0,63 h 0,00 h 320 W/m 16,1 km/h (3 Bft) 97,52 %
21.10.2019 14:00 16,1 C 17,1 C 14,8 C 76 % 1018,1 hPa 0,0 l/m 0,50 h 0,00 h 279 W/m 23,5 km/h (4 Bft) 96,22 %
21.10.2019 15:00 15,5 C 15,5 C 14,3 C 77 % 1018,2 hPa 0,0 l/m 0,30 h 0,00 h 159 W/m 23,3 km/h (4 Bft) 98,43 %
21.10.2019 16:00 15,0 C 14,4 C 13,9 C 77 % 1018,7 hPa 0,0 l/m 0,00 h 0,00 h 82 W/m 18,0 km/h (3 Bft) 98,02 %
21.10.2019 17:00 14,7 C 14,0 C 13,3 C 79 % 1019,2 hPa 0,0 l/m 0,00 h 0,00 h 29 W/m 13,4 km/h (3 Bft) 96,45 %
21.10.2019 18:00 14,4 C 13,3 C 12,7 C 81 % 1019,7 hPa 0,0 l/m 0,00 h 0,00 h 5 W/m 3,1 km/h (1 Bft) 98,96 %
21.10.2019 19:00 14,0 C 12,8 C 12,2 C 83 % 1020,5 hPa 0,0 l/m 0,00 h 0,00 h 0 W/m 6,5 km/h (2 Bft) 96,26 %
21.10.2019 20:00 13,6 C 12,8 C 12,2 C 83 % 1020,7 hPa 0,0 l/m 0,00 h 0,00 h 0 W/m 5,9 km/h (2 Bft) 97,01 %
21.10.2019 21:00 13,4 C 12,8 C 12,2 C 83 % 1021,1 hPa 0,0 l/m 0,00 h 0,00 h 0 W/m 14,0 km/h (3 Bft) 99,36 %
21.10.2019 22:00 13,4 C 12,4 C 12,0 C 82 % 1021,2 hPa 0,0 l/m 0,00 h 0,00 h 0 W/m 9,1 km/h (2 Bft) 96,15 %
21.10.2019 23:00 13,1 C 12,2 C 11,7 C 83 % 1021,5 hPa 0,0 l/m 0,00 h 0,00 h 0 W/m 8,3 km/h (2 Bft) 97,01 %
22.10.2019 00:00 13,0 C 12,2 C 11,7 C 84 % 1021,8 hPa 0,0 l/m 0,00 h 0,00 h 0 W/m 9,8 km/h (2 Bft) 99,10 %
22.10.2019 01:00 12,9 C 12,2 C 11,7 C 85 % 1022,1 hPa 0,0 l/m 0,00 h 0,00 h 0 W/m 11,8 km/h (2 Bft) 96,17 %
22.10.2019 02:00 12,8 C 11,9 C 11,6 C 85 % 1022,3 hPa 0,0 l/m 0,00 h 0,00 h 0 W/m 11,5 km/h (2 Bft) 96,02 %
22.10.2019 03:00 12,5 C 11,7 C 11,1 C 86 % 1022,5 hPa 0,0 l/m 0,00 h 0,00 h 0 W/m 10,6 km/h (2 Bft) 98,72 %
22.10.2019 04:00 12,4 C 11,7 C 11,1 C 87 % 1022,4 hPa 0,0 l/m 0,00 h 0,00 h 0 W/m 8,8 km/h (2 Bft) 98,72 %
22.10.2019 05:00 12,3 C 11,7 C 11,1 C 87 % 1022,5 hPa 0,0 l/m 0,00 h 0,00 h 0 W/m 9,1 km/h (2 Bft) 96,72 %
22.10.2019 06:00 12,3 C 11,7 C 11,1 C 88 % 1022,5 hPa 0,0 l/m 0,00 h 0,00 h 0 W/m 7,8 km/h (2 Bft) 97,16 %
22.10.2019 07:00 12,2 C 11,6 C 11,1 C 89 % 1022,8 hPa 0,0 l/m 0,00 h 0,00 h 0 W/m 6,4 km/h (2 Bft) 98,58 %
22.10.2019 08:00 12,1 C 11,3 C 11,1 C 90 % 1023,8 hPa 0,0 l/m 0,00 h 0,00 h 10 W/m 7,9 km/h (2 Bft) 97,93 %
22.10.2019 09:00 12,2 C 11,8 C 11,2 C 91 % 1024,3 hPa 0,0 l/m 0,00 h 0,00 h 36 W/m 11,9 km/h (2 Bft) 96,01 %
22.10.2019 10:00 12,5 C 12,4 C 11,9 C 91 % 1024,7 hPa 0,0 l/m 0,00 h 0,00 h 80 W/m 14,6 km/h (3 Bft) 98,79 %
22.10.2019 11:00 13,2 C 13,5 C 12,7 C 90 % 1025,1 hPa 0,0 l/m 0,00 h 0,00 h 137 W/m 11,7 km/h (2 Bft) 96,51 %
22.10.2019 12:00 13,6 C 13,3 C 12,8 C 90 % 1025,5 hPa 0,0 l/m 0,00 h 0,00 h 96 W/m 12,2 km/h (2 Bft) 95,74 %
22.10.2019 13:00 14,0 C 14,1 C 13,4 C 89 % 1025,2 hPa 0,0 l/m 0,00 h 0,00 h 118 W/m 6,9 km/h (2 Bft) 99,64 %
22.10.2019 14:00 14,9 C 18,0 C 14,5 C 86 % 1024,6 hPa 0,0 l/m 0,73 h 0,00 h 362 W/m 8,2 km/h (2 Bft) 96,44 %
22.10.2019 15:00 15,9 C 16,1 C 14,5 C 81 % 1024,2 hPa 0,0 l/m 0,37 h 0,00 h 159 W/m 8,9 km/h (2 Bft) 97,01 %
22.10.2019 16:00 15,0 C 14,4 C 13,8 C 84 % 1024,3 hPa 0,0 l/m 0,13 h 0,00 h 91 W/m 10,4 km/h (2 Bft) 97,93 %
22.10.2019 17:00 14,5 C 13,5 C 12,7 C 85 % 1024,1 hPa 0,0 l/m 0,07 h 0,00 h 42 W/m 3,1 km/h (1 Bft) 98,50 %
22.10.2019 18:00 13,8 C 12,1 C 11,5 C 87 % 1024,1 hPa 0,0 l/m 0,10 h 0,00 h 13 W/m 1,7 km/h (1 Bft) 96,24 %
22.10.2019 19:00 12,6 C 10,4 C 9,9 C 89 % 1024,4 hPa 0,0 l/m 0,00 h 0,00 h 0 W/m 0,3 km/h (0 Bft) 97,32 %
22.10.2019 20:00 11,4 C 9,8 C 9,4 C 90 % 1024,2 hPa 0,0 l/m 0,00 h 0,00 h 0 W/m 0,1 km/h (0 Bft) 98,05 %
22.10.2019 21:00 11,4 C 10,7 C 10,5 C 94 % 1024,0 hPa 0,0 l/m 0,00 h 0,00 h 0 W/m 1,5 km/h (1 Bft) 98,93 %
22.10.2019 22:00 11,3 C 10,1 C 10,0 C 95 % 1023,7 hPa 0,0 l/m 0,00 h 0,00 h 0 W/m 0,0 km/h (0 Bft) 95,94 %
22.10.2019 23:00 11,1 C 10,0 C 9,9 C 95 % 1023,6 hPa 0,0 l/m 0,00 h 0,00 h 0 W/m 0,0 km/h (0 Bft) 97,86 %
23.10.2019 00:00 11,1 C 10,0 C 9,7 C 95 % 1023,2 hPa 0,0 l/m 0,00 h 0,13 h 0 W/m 0,0 km/h (0 Bft) 99,02 %
23.10.2019 01:00 11,0 C 9,8 C 9,4 C 96 % 1022,5 hPa 0,0 l/m 0,00 h 0,27 h 0 W/m 0,0 km/h (0 Bft) 95,80 %
23.10.2019 02:00 10,9 C 10,0 C 9,4 C 96 % 1022,0 hPa 0,0 l/m 0,00 h 0,13 h 0 W/m 0,0 km/h (0 Bft) 97,59 %
23.10.2019 03:00 10,9 C 10,0 C 9,4 C 97 % 1021,2 hPa 0,0 l/m 0,00 h 0,00 h 0 W/m 0,1 km/h (0 Bft) 98,58 %
23.10.2019 04:00 10,8 C 9,9 C 9,4 C 97 % 1020,7 hPa 0,0 l/m 0,00 h 0,37 h 0 W/m 0,0 km/h (0 Bft) 96,79 %
23.10.2019 05:00 10,8 C 9,6 C 9,4 C 97 % 1020,1 hPa 0,0 l/m 0,00 h 0,00 h 0 W/m 0,3 km/h (0 Bft) 97,23 %
23.10.2019 06:00 10,7 C 10,0 C 9,4 C 97 % 1019,4 hPa 0,0 l/m 0,00 h 0,20 h 0 W/m 1,5 km/h (1 Bft) 97,84 %
23.10.2019 07:00 10,7 C 9,5 C 9,4 C 98 % 1018,9 hPa 0,0 l/m 0,00 h 0,07 h 0 W/m 1,4 km/h (1 Bft) 97,44 %
23.10.2019 08:00 10,5 C 9,6 C 9,5 C 98 % 1018,4 hPa 0,2 l/m 0,00 h 0,00 h 18 W/m 1,0 km/h (0 Bft) 98,84 %
23.10.2019 09:00 10,8 C 10,7 C 10,3 C 98 % 1018,2 hPa 0,0 l/m 0,00 h 0,07 h 37 W/m 0,0 km/h (0 Bft) 96,01 %
23.10.2019 10:00 11,8 C 14,5 C 12,2 C 98 % 1017,7 hPa 0,0 l/m 0,70 h 0,00 h 208 W/m 0,1 km/h (0 Bft) 97,15 %
23.10.2019 11:00 13,9 C 18,0 C 13,8 C 93 % 1016,9 hPa 0,0 l/m 0,87 h 0,00 h 284 W/m 0,4 km/h (0 Bft) 97,15 %
23.10.2019 12:00 15,4 C 17,5 C 15,1 C 87 % 1015,7 hPa 0,0 l/m 0,43 h 0,00 h 239 W/m 4,9 km/h (1 Bft) 99,71 %
23.10.2019 13:00 17,4 C 22,3 C 18,0 C 82 % 1015,0 hPa 0,0 l/m 1,00 h 0,00 h 452 W/m 9,0 km/h (2 Bft) 97,51 %
23.10.2019 14:00 18,9 C 22,3 C 17,1 C 78 % 1014,2 hPa 0,0 l/m 0,83 h 0,00 h 351 W/m 10,1 km/h (2 Bft) 97,08 %
23.10.2019 15:00 18,5 C 20,4 C 16,6 C 79 % 1013,3 hPa 0,0 l/m 0,87 h 0,00 h 285 W/m 13,8 km/h (3 Bft) 98,22 %
23.10.2019 16:00 18,1 C 19,6 C 16,2 C 81 % 1012,7 hPa 0,0 l/m 1,00 h 0,00 h 212 W/m 11,5 km/h (2 Bft) 97,58 %
23.10.2019 17:00 16,8 C 15,5 C 14,8 C 84 % 1012,1 hPa 0,0 l/m 0,03 h 0,00 h 41 W/m 11,7 km/h (2 Bft) 97,51 %
23.10.2019 18:00 15,4 C 13,8 C 13,4 C 87 % 1011,7 hPa 0,0 l/m 0,00 h 0,00 h 10 W/m 7,6 km/h (2 Bft) 97,94 %
23.10.2019 19:00 14,1 C 12,7 C 12,3 C 90 % 1011,1 hPa 0,0 l/m 0,00 h 0,00 h 0 W/m 10,7 km/h (2 Bft) 98,65 %
23.10.2019 20:00 13,6 C 12,6 C 12,1 C 93 % 1010,7 hPa 0,0 l/m 0,00 h 0,00 h 0 W/m 13,8 km/h (3 Bft) 95,77 %
23.10.2019 21:00 13,3 C 12,5 C 12,2 C 94 % 1010,1 hPa 0,0 l/m 0,00 h 0,00 h 0 W/m 19,9 km/h (4 Bft) 98,03 %
23.10.2019 22:00 13,3 C 12,6 C 12,2 C 94 % 1009,9 hPa 0,0 l/m 0,00 h 0,00 h 0 W/m 17,2 km/h (3 Bft) 98,80 %
23.10.2019 23:00 13,2 C 12,2 C 12,0 C 94 % 1009,6 hPa 0,0 l/m 0,00 h 0,00 h 0 W/m 18,3 km/h (3 Bft) 97,21 %
24.10.2019 00:00 13,2 C 12,5 C 12,2 C 95 % 1009,0 hPa 0,0 l/m 0,00 h 0,00 h 0 W/m 17,6 km/h (3 Bft) 97,19 %
24.10.2019 01:00 13,1 C 12,1 C 11,7 C 95 % 1009,0 hPa 0,0 l/m 0,00 h 0,00 h 0 W/m 11,2 km/h (2 Bft) 97,05 %
24.10.2019 02:00 12,8 C 11,7 C 11,5 C 95 % 1009,0 hPa 0,0 l/m 0,00 h 0,00 h 0 W/m 6,4 km/h (2 Bft) 97,86 %
24.10.2019 03:00 12,5 C 11,7 C 11,1 C 96 % 1008,5 hPa 0,0 l/m 0,00 h 0,00 h 0 W/m 7,4 km/h (2 Bft) 95,91 %
24.10.2019 04:00 12,5 C 11,7 C 11,3 C 97 % 1008,0 hPa 0,0 l/m 0,00 h 0,00 h 0 W/m 13,7 km/h (3 Bft) 97,59 %
24.10.2019 05:00 12,3 C 11,2 C 10,9 C 97 % 1007,8 hPa 0,0 l/m 0,00 h 0,00 h 0 W/m 14,4 km/h (3 Bft) 96,86 %
24.10.2019 06:00 11,9 C 10,9 C 10,6 C 97 % 1007,7 hPa 0,0 l/m 0,00 h 0,00 h 0 W/m 8,9 km/h (2 Bft) 98,02 %
24.10.2019 07:00 11,8 C 11,1 C 10,7 C 98 % 1007,7 hPa 0,0 l/m 0,00 h 0,00 h 0 W/m 11,1 km/h (2 Bft) 97,30 %
24.10.2019 08:00 12,0 C 11,7 C 11,1 C 98 % 1008,1 hPa 0,0 l/m 0,00 h 0,00 h 16 W/m 12,9 km/h (3 Bft) 96,72 %
24.10.2019 09:00 12,2 C 12,0 C 11,5 C 98 % 1007,9 hPa 0,0 l/m 0,00 h 0,00 h 43 W/m 12,6 km/h (3 Bft) 99,21 %
24.10.2019 10:00 12,9 C 13,5 C 12,7 C 98 % 1007,9 hPa 0,0 l/m 0,00 h 0,00 h 101 W/m 14,9 km/h (3 Bft) 95,88 %
24.10.2019 11:00 14,0 C 15,5 C 13,9 C 97 % 1008,4 hPa 0,0 l/m 0,50 h 0,00 h 210 W/m 14,4 km/h (3 Bft) 96,75 %
24.10.2019 12:00 15,8 C 16,9 C 15,9 C 91 % 1008,7 hPa 0,0 l/m 0,37 h 0,00 h 184 W/m 15,2 km/h (3 Bft) 98,09 %
24.10.2019 13:00 17,4 C 20,4 C 17,8 C 87 % 1008,6 hPa 0,0 l/m 0,70 h 0,00 h 335 W/m 15,0 km/h (3 Bft) 97,98 %
24.10.2019 14:00 19,5 C 21,5 C 18,5 C 76 % 1008,2 hPa 0,0 l/m 0,70 h 0,00 h 285 W/m 19,3 km/h (3 Bft) 98,51 %
24.10.2019 15:00 20,0 C 21,2 C 18,6 C 75 % 1008,0 hPa 0,0 l/m 0,83 h 0,00 h 239 W/m 17,6 km/h (3 Bft) 95,23 %
24.10.2019 16:00 20,3 C 21,6 C 18,5 C 74 % 1007,9 hPa 0,0 l/m 0,77 h 0,00 h 185 W/m 16,4 km/h (3 Bft) 99,57 %
24.10.2019 17:00 19,9 C 18,6 C 17,8 C 72 % 1008,4 hPa 0,0 l/m 0,00 h 0,00 h 27 W/m 15,7 km/h (3 Bft) 97,93 %
24.10.2019 18:00 18,7 C 17,2 C 16,6 C 74 % 1009,0 hPa 0,0 l/m 0,00 h 0,00 h 9 W/m 11,1 km/h (2 Bft) 95,84 %
24.10.2019 19:00 17,7 C 16,3 C 15,9 C 76 % 1009,8 hPa 0,0 l/m 0,00 h 0,00 h 0 W/m 15,5 km/h (3 Bft) 97,36 %
24.10.2019 20:00 17,0 C 15,9 C 15,3 C 75 % 1010,5 hPa 0,0 l/m 0,00 h 0,00 h 0 W/m 16,4 km/h (3 Bft) 96,79 %
24.10.2019 21:00 16,3 C 15,0 C 14,5 C 77 % 1011,4 hPa 0,0 l/m 0,00 h 0,00 h 0 W/m 13,5 km/h (3 Bft) 98,12 %
24.10.2019 22:00 15,3 C 13,8 C 13,4 C 80 % 1012,0 hPa 0,0 l/m 0,00 h 0,00 h 0 W/m 12,4 km/h (3 Bft) 97,01 %
24.10.2019 23:00 14,4 C 12,9 C 12,7 C 83 % 1012,4 hPa 0,0 l/m 0,00 h 0,00 h 0 W/m 10,2 km/h (2 Bft) 94,04 %
25.10.2019 00:00 13,9 C 13,3 C 12,7 C 85 % 1012,8 hPa 0,0 l/m 0,00 h 0,00 h 0 W/m 8,8 km/h (2 Bft) 93,73 %
25.10.2019 01:00 14,3 C 13,9 C 13,3 C 85 % 1013,3 hPa 0,0 l/m 0,00 h 0,00 h 0 W/m 14,0 km/h (3 Bft) 96,37 %
25.10.2019 02:00 14,8 C 14,1 C 13,6 C 86 % 1014,1 hPa 0,0 l/m 0,00 h 0,00 h 0 W/m 17,6 km/h (3 Bft) 93,37 %
25.10.2019 03:00 14,9 C 14,0 C 13,5 C 86 % 1014,8 hPa 0,0 l/m 0,00 h 0,00 h 0 W/m 18,5 km/h (3 Bft) 99,15 %
25.10.2019 04:00 14,4 C 13,3 C 12,9 C 87 % 1015,3 hPa 0,0 l/m 0,00 h 0,00 h 0 W/m 15,8 km/h (3 Bft) 97,79 %
25.10.2019 05:00 14,0 C 12,8 C 12,4 C 88 % 1016,1 hPa 0,0 l/m 0,00 h 0,00 h 0 W/m 11,7 km/h (2 Bft) 93,74 %
25.10.2019 06:00 13,1 C 11,8 C 11,7 C 89 % 1016,8 hPa 0,0 l/m 0,00 h 0,00 h 0 W/m 9,8 km/h (2 Bft) 98,57 %
25.10.2019 07:00 12,5 C 11,6 C 11,1 C 90 % 1017,6 hPa 0,0 l/m 0,00 h 0,00 h 0 W/m 8,8 km/h (2 Bft) 97,72 %
25.10.2019 08:00 12,2 C 11,3 C 11,1 C 92 % 1018,5 hPa 0,0 l/m 0,00 h 0,00 h 16 W/m 8,9 km/h (2 Bft) 97,52 %
25.10.2019 09:00 12,4 C 12,2 C 11,7 C 92 % 1019,3 hPa 0,0 l/m 0,00 h 0,00 h 69 W/m 15,5 km/h (3 Bft) 97,94 %
25.10.2019 10:00 13,2 C 13,7 C 12,6 C 89 % 1019,7 hPa 0,0 l/m 0,70 h 0,00 h 168 W/m 20,4 km/h (4 Bft) 97,37 %
25.10.2019 11:00 14,2 C 15,7 C 13,5 C 84 % 1020,3 hPa 0,0 l/m 1,00 h 0,00 h 306 W/m 24,0 km/h (4 Bft) 96,56 %
25.10.2019 12:00 15,6 C 18,5 C 14,5 C 77 % 1020,6 hPa 0,0 l/m 1,00 h 0,00 h 452 W/m 27,9 km/h (4 Bft) 97,22 %
25.10.2019 13:00 16,6 C 19,3 C 15,9 C 74 % 1020,6 hPa 0,0 l/m 0,90 h 0,00 h 422 W/m 26,1 km/h (4 Bft) 99,36 %
25.10.2019 14:00 17,0 C 18,9 C 15,9 C 71 % 1020,2 hPa 0,0 l/m 0,87 h 0,00 h 367 W/m 27,0 km/h (4 Bft) 97,63 %
25.10.2019 15:00 17,2 C 18,9 C 15,9 C 68 % 1019,7 hPa 0,0 l/m 1,00 h 0,00 h 302 W/m 23,8 km/h (4 Bft) 96,52 %
25.10.2019 16:00 17,1 C 17,9 C 15,6 C 70 % 1019,7 hPa 0,0 l/m 0,97 h 0,00 h 175 W/m 18,2 km/h (3 Bft) 97,96 %
25.10.2019 17:00 16,6 C 15,6 C 14,7 C 71 % 1019,4 hPa 0,0 l/m 0,00 h 0,07 h 47 W/m 11,9 km/h (2 Bft) 96,44 %
25.10.2019 18:00 15,6 C 14,4 C 13,9 C 76 % 1019,0 hPa 0,0 l/m 0,00 h 0,00 h 11 W/m 7,4 km/h (2 Bft) 97,03 %
25.10.2019 19:00 15,1 C 14,0 C 13,5 C 77 % 1018,9 hPa 0,0 l/m 0,00 h 0,00 h 0 W/m 9,0 km/h (2 Bft) 99,44 %
25.10.2019 20:00 15,1 C 14,4 C 13,9 C 78 % 1018,7 hPa 0,0 l/m 0,00 h 0,00 h 0 W/m 12,5 km/h (3 Bft) 97,38 %
25.10.2019 21:00 15,1 C 14,1 C 13,7 C 80 % 1018,4 hPa 0,0 l/m 0,00 h 0,00 h 0 W/m 14,8 km/h (3 Bft) 94,60 %
25.10.2019 22:00 14,8 C 13,9 C 13,3 C 84 % 1018,2 hPa 0,0 l/m 0,00 h 0,00 h 0 W/m 13,2 km/h (3 Bft) 99,36 %
25.10.2019 23:00 14,3 C 13,0 C 12,6 C 86 % 1018,1 hPa 0,0 l/m 0,00 h 0,00 h 0 W/m 12,9 km/h (3 Bft) 97,43 %
26.10.2019 00:00 13,7 C 12,8 C 12,2 C 88 % 1018,0 hPa 0,0 l/m 0,00 h 0,00 h 0 W/m 11,3 km/h (2 Bft) 96,63 %
26.10.2019 01:00 13,7 C 12,8 C 12,3 C 89 % 1018,0 hPa 0,0 l/m 0,00 h 0,00 h 0 W/m 10,6 km/h (2 Bft) 98,29 %
26.10.2019 02:00 13,7 C 12,9 C 12,5 C 90 % 1017,5 hPa 0,0 l/m 0,00 h 0,00 h 0 W/m 11,8 km/h (2 Bft) 97,43 %
26.10.2019 03:00 14,0 C 13,2 C 12,8 C 90 % 1017,0 hPa 0,0 l/m 0,00 h 0,00 h 0 W/m 13,1 km/h (3 Bft) 98,51 %
26.10.2019 04:00 14,2 C 13,3 C 12,7 C 89 % 1016,6 hPa 0,0 l/m 0,00 h 0,00 h 0 W/m 12,3 km/h (3 Bft) 95,98 %
26.10.2019 05:00 14,4 C 13,8 C 13,1 C 89 % 1016,6 hPa 0,0 l/m 0,00 h 0,00 h 0 W/m 14,9 km/h (3 Bft) 97,58 %
26.10.2019 06:00 14,5 C 13,5 C 13,0 C 88 % 1016,4 hPa 0,0 l/m 0,00 h 0,00 h 0 W/m 14,7 km/h (3 Bft) 98,88 %
26.10.2019 07:00 14,3 C 13,4 C 12,9 C 89 % 1016,3 hPa 0,0 l/m 0,00 h 0,00 h 0 W/m 10,4 km/h (2 Bft) 96,36 %
26.10.2019 08:00 14,4 C 13,9 C 13,3 C 89 % 1016,3 hPa 0,0 l/m 0,00 h 0,00 h 13 W/m 10,7 km/h (2 Bft) 97,15 %
26.10.2019 09:00 14,6 C 14,2 C 13,4 C 88 % 1016,2 hPa 0,0 l/m 0,03 h 0,00 h 57 W/m 11,8 km/h (2 Bft) 97,86 %
26.10.2019 10:00 15,3 C 16,4 C 14,4 C 86 % 1016,0 hPa 0,0 l/m 1,00 h 0,00 h 216 W/m 14,4 km/h (3 Bft) 97,65 %
26.10.2019 11:00 16,7 C 19,0 C 15,7 C 84 % 1015,7 hPa 0,0 l/m 0,97 h 0,00 h 348 W/m 17,9 km/h (3 Bft) 98,65 %
26.10.2019 12:00 18,9 C 23,0 C 17,6 C 77 % 1015,5 hPa 0,0 l/m 1,00 h 0,00 h 477 W/m 22,8 km/h (4 Bft) 96,80 %
26.10.2019 13:00 20,3 C 22,7 C 19,4 C 70 % 1014,7 hPa 0,0 l/m 0,90 h 0,00 h 409 W/m 24,5 km/h (4 Bft) 96,01 %
26.10.2019 14:00 21,0 C 23,3 C 19,4 C 67 % 1013,8 hPa 0,0 l/m 1,00 h 0,00 h 389 W/m 27,8 km/h (4 Bft) 98,01 %
26.10.2019 15:00 20,7 C 20,9 C 19,0 C 67 % 1013,2 hPa 0,0 l/m 0,53 h 0,00 h 182 W/m 18,2 km/h (3 Bft) 99,36 %
26.10.2019 16:00 20,7 C 21,3 C 19,0 C 66 % 1012,7 hPa 0,0 l/m 0,80 h 0,00 h 168 W/m 16,5 km/h (3 Bft) 95,37 %
26.10.2019 17:00 20,0 C 18,9 C 18,1 C 66 % 1012,3 hPa 0,0 l/m 0,00 h 0,00 h 46 W/m 19,3 km/h (3 Bft) 98,29 %
26.10.2019 18:00 18,9 C 17,5 C 16,9 C 69 % 1012,0 hPa 0,0 l/m 0,00 h 0,00 h 8 W/m 19,3 km/h (3 Bft) 98,82 %
26.10.2019 19:00 18,1 C 16,9 C 16,5 C 71 % 1012,1 hPa 0,0 l/m 0,00 h 0,00 h 0 W/m 12,5 km/h (3 Bft) 95,09 %
26.10.2019 20:00 17,3 C 16,0 C 15,5 C 74 % 1012,3 hPa 0,0 l/m 0,00 h 0,00 h 0 W/m 9,3 km/h (2 Bft) 98,00 %
26.10.2019 21:00 16,6 C 15,6 C 15,0 C 76 % 1012,5 hPa 0,0 l/m 0,00 h 0,00 h 0 W/m 8,7 km/h (2 Bft) 98,51 %
26.10.2019 22:00 17,0 C 16,6 C 16,0 C 72 % 1012,5 hPa 0,0 l/m 0,00 h 0,00 h 0 W/m 17,5 km/h (3 Bft) 96,51 %
26.10.2019 23:00 17,9 C 17,1 C 16,6 C 70 % 1012,6 hPa 0,0 l/m 0,00 h 0,00 h 0 W/m 23,9 km/h (4 Bft) 97,72 %
27.10.2019 00:00 18,2 C 17,3 C 16,7 C 70 % 1012,6 hPa 0,0 l/m 0,00 h 0,00 h 0 W/m 25,3 km/h (4 Bft) 98,29 %
27.10.2019 01:00 18,3 C 17,3 C 16,7 C 70 % 1012,8 hPa 0,0 l/m 0,00 h 0,00 h 0 W/m 27,4 km/h (4 Bft) 96,58 %
27.10.2019 02:00 15,8 C 13,9 C 13,5 C 89 % 1013,5 hPa 0,8 l/m 0,00 h 1,27 h 0 W/m 16,7 km/h (3 Bft) 97,35 %
27.10.2019 03:00 14,5 C 13,2 C 12,8 C 97 % 1013,8 hPa 1,4 l/m 0,00 h 1,00 h 0 W/m 13,5 km/h (3 Bft) 96,87 %
27.10.2019 04:00 12,6 C 10,8 C 10,8 C 96 % 1015,1 hPa 0,4 l/m 0,00 h 0,63 h 0 W/m 15,4 km/h (3 Bft) 98,93 %
27.10.2019 05:00 10,7 C 9,2 C 9,3 C 97 % 1016,7 hPa 0,6 l/m 0,00 h 0,70 h 0 W/m 13,3 km/h (3 Bft) 94,92 %
27.10.2019 06:00 9,5 C 8,1 C 8,2 C 97 % 1017,7 hPa 0,2 l/m 0,00 h 0,77 h 0 W/m 3,5 km/h (1 Bft) 97,58 %
27.10.2019 07:00 9,3 C 8,3 C 8,3 C 97 % 1018,9 hPa 0,0 l/m 0,00 h 0,03 h 6 W/m 1,1 km/h (1 Bft) 99,79 %
27.10.2019 08:00 9,4 C 8,4 C 8,4 C 98 % 1020,1 hPa 0,0 l/m 0,00 h 0,00 h 26 W/m 1,4 km/h (1 Bft) 95,87 %
27.10.2019 09:00 9,6 C 9,1 C 8,9 C 98 % 1020,7 hPa 0,0 l/m 0,00 h 0,00 h 51 W/m 1,8 km/h (1 Bft) 96,73 %
27.10.2019 10:00 10,0 C 10,2 C 9,3 C 98 % 1021,3 hPa 0,0 l/m 0,17 h 0,00 h 148 W/m 4,5 km/h (1 Bft) 99,29 %
27.10.2019 11:00 10,6 C 11,0 C 10,1 C 93 % 1021,5 hPa 0,0 l/m 0,30 h 0,00 h 195 W/m 4,4 km/h (1 Bft) 95,87 %
27.10.2019 12:00 11,4 C 13,2 C 11,4 C 85 % 1021,8 hPa 0,0 l/m 0,47 h 0,00 h 253 W/m 5,1 km/h (1 Bft) 97,42 %
27.10.2019 13:00 11,5 C 12,0 C 11,0 C 82 % 1021,9 hPa 0,0 l/m 0,03 h 0,00 h 175 W/m 5,1 km/h (1 Bft) 96,61 %
27.10.2019 14:00 11,4 C 11,9 C 10,6 C 81 % 1021,9 hPa 0,0 l/m 0,30 h 0,00 h 150 W/m 4,0 km/h (1 Bft) 97,72 %
27.10.2019 15:00 11,3 C 11,0 C 10,2 C 81 % 1022,1 hPa 0,0 l/m 0,00 h 0,00 h 93 W/m 2,6 km/h (1 Bft) 96,22 %
27.10.2019 16:00 10,6 C 9,6 C 8,8 C 82 % 1022,3 hPa 0,0 l/m 0,03 h 0,00 h 39 W/m 0,5 km/h (0 Bft) 98,29 %
27.10.2019 17:00 9,7 C 7,8 C 7,0 C 85 % 1022,5 hPa 0,0 l/m 0,00 h 0,00 h 8 W/m 0,4 km/h (0 Bft) 97,29 %
27.10.2019 18:00 8,6 C 6,9 C 6,1 C 88 % 1023,0 hPa 0,0 l/m 0,00 h 0,00 h 0 W/m 0,1 km/h (0 Bft) 96,91 %
27.10.2019 19:00 7,7 C 5,9 C 5,3 C 90 % 1023,3 hPa 0,0 l/m 0,00 h 0,03 h 0 W/m 0,0 km/h (0 Bft) 96,65 %
27.10.2019 20:00 6,7 C 5,0 C 4,4 C 90 % 1023,6 hPa 0,0 l/m 0,00 h 0,03 h 0 W/m 0,0 km/h (0 Bft) 99,22 %
27.10.2019 21:00 6,2 C 4,9 C 4,3 C 92 % 1023,9 hPa 0,0 l/m 0,00 h 0,00 h 0 W/m 0,0 km/h (0 Bft) 96,42 %
27.10.2019 22:00 5,8 C 4,4 C 3,9 C 93 % 1024,1 hPa 0,0 l/m 0,00 h 0,00 h 0 W/m 0,0 km/h (0 Bft) 95,58 %
27.10.2019 23:00 5,4 C 4,0 C 3,6 C 94 % 1024,2 hPa 0,0 l/m 0,00 h 0,00 h 0 W/m 0,0 km/h (0 Bft) 97,15 %
Min-Datum _ 27.10.19 27.10.19 27.10.19 26.10.19 24.10.19 - - - - 21.10.19 25.10.19
_ Min-Zeit 23:50 22:48 23:00 14:38 07:18 - - - - 00:00 00:02
Minimum _ 5,2 C 3,9 C 3,3 C 64 % 1007,2 hPa - - - - 0,0 km/h (0 Bft) 15,38 %
Max-Datum _ 26.10.19 26.10.19 26.10.19 21.10.19 22.10.19 27.10.19 21.10.19 21.10.19 21.10.19 25.10.19 21.10.19
_ Max-Zeit 14:34 14:18 13:22 00:00 12:42 03:04 12:08 00:08 14:16 13:52 00:08
Maximum _ 21,3 C 25,0 C 22,8 C 100 % 1025,7 hPa 1,4 l/m 0,07 h 0,07 h 640 W/m 48,3 km/h
S-SO (6 Bft)
100,00 %
Durchschnitt _ 13,9 C 13,6 C 12,6 C 87 % 1016,8 hPa #3,8 l/m #28:40 h #6:16 h 163 W/m 10,5 km/h (2 Bft) 97,36 %
© 2019 W. Hausmann